createdAt,value
2023-02-23T00:02:28.790Z,51.58
2023-02-23T00:05:35.866Z,57.63
2023-02-23T00:08:39.271Z,57.53
2023-02-23T00:11:41.474Z,54.00
2023-02-23T00:14:44.164Z,56.17
2023-02-23T00:17:47.944Z,53.90
2023-02-23T00:21:08.533Z,55.72
2023-02-23T00:24:14.955Z,55.13
2023-02-23T00:27:21.294Z,52.22
2023-02-23T00:30:23.957Z,56.25
2023-02-23T00:33:26.135Z,56.95
2023-02-23T00:36:33.902Z,53.13
2023-02-23T00:39:36.075Z,53.95
2023-02-23T00:42:38.318Z,56.47
2023-02-23T00:45:40.525Z,54.95
2023-02-23T00:48:44.819Z,56.63
2023-02-23T00:51:47.347Z,56.42
2023-02-23T00:54:49.864Z,56.53
2023-02-23T00:57:51.980Z,55.65
2023-02-23T01:00:54.608Z,54.70
2023-02-23T01:03:56.967Z,54.45
2023-02-23T01:06:59.232Z,53.75
2023-02-23T01:10:03.574Z,55.85
2023-02-23T01:13:06.151Z,54.20
2023-02-23T01:16:11.088Z,54.28
2023-02-23T01:19:13.520Z,55.47
2023-02-23T01:22:16.853Z,54.22
2023-02-23T01:25:19.373Z,56.88
2023-02-23T01:28:21.760Z,57.80
2023-02-23T01:31:25.107Z,55.00
2023-02-23T01:34:28.413Z,52.80
2023-02-23T01:37:32.045Z,54.53
2023-02-23T01:40:37.217Z,54.50
2023-02-23T01:44:18.012Z,55.22
2023-02-23T01:47:20.686Z,52.45
2023-02-23T01:50:26.939Z,55.63
2023-02-23T01:53:35.797Z,56.30
2023-02-23T01:56:43.524Z,53.38
2023-02-23T01:59:49.342Z,53.42
2023-02-23T02:02:52.457Z,54.08
2023-02-23T02:05:56.989Z,53.42
2023-02-23T02:09:10.442Z,54.88
2023-02-23T02:12:14.968Z,51.65
2023-02-23T02:15:22.686Z,54.17
2023-02-23T02:18:49.000Z,53.17
2023-02-23T02:22:25.819Z,51.58
2023-02-23T02:25:57.257Z,49.97
2023-02-23T02:29:20.517Z,52.20
2023-02-23T02:32:41.591Z,52.55
2023-02-23T02:36:14.752Z,51.60
2023-02-23T02:39:46.792Z,51.30
2023-02-23T02:43:16.208Z,53.75
2023-02-23T02:46:41.653Z,52.13
2023-02-23T02:50:03.319Z,49.38
2023-02-23T02:53:09.292Z,50.60
2023-02-23T02:56:14.347Z,53.05
2023-02-23T02:59:39.721Z,51.45
2023-02-23T03:03:00.378Z,52.40
2023-02-23T03:06:21.205Z,52.95
2023-02-23T03:09:55.082Z,53.92
2023-02-23T03:13:27.953Z,55.00
2023-02-23T03:16:54.619Z,50.83
2023-02-23T03:20:32.592Z,51.97
2023-02-23T03:24:11.340Z,51.72
2023-02-23T03:27:35.083Z,50.50
2023-02-23T03:31:28.571Z,50.95
2023-02-23T03:34:55.652Z,50.67
2023-02-23T03:38:43.192Z,52.55
2023-02-23T03:42:06.747Z,52.15
2023-02-23T03:45:33.978Z,53.60
2023-02-23T03:48:57.025Z,51.70
2023-02-23T03:52:44.892Z,53.70
2023-02-23T03:56:11.647Z,51.55
2023-02-23T03:59:35.354Z,53.35
2023-02-23T04:02:56.840Z,53.45
2023-02-23T04:06:19.143Z,51.67
2023-02-23T04:09:39.772Z,52.92
2023-02-23T04:13:17.192Z,55.92
2023-02-23T04:16:20.430Z,51.95
2023-02-23T04:19:23.100Z,55.25
2023-02-23T04:22:25.686Z,52.58
2023-02-23T04:25:29.465Z,52.20
2023-02-23T04:28:31.712Z,52.28
2023-02-23T04:31:34.069Z,55.15
2023-02-23T04:34:36.428Z,52.05
2023-02-23T04:37:38.837Z,50.03
2023-02-23T04:40:41.048Z,54.65
2023-02-23T04:43:43.201Z,54.13
2023-02-23T04:46:45.848Z,52.97
2023-02-23T04:49:47.991Z,51.17
2023-02-23T04:52:50.356Z,54.45
2023-02-23T04:55:52.608Z,53.58
2023-02-23T04:58:54.971Z,53.17
2023-02-23T05:01:57.039Z,52.47
2023-02-23T05:04:59.210Z,52.45
2023-02-23T05:08:01.858Z,53.50
2023-02-23T05:11:05.929Z,50.45
2023-02-23T05:14:08.137Z,52.67
2023-02-23T05:17:10.534Z,53.15
2023-02-23T05:20:14.241Z,53.90
2023-02-23T05:23:16.354Z,56.63
2023-02-23T05:26:19.008Z,50.78
2023-02-23T05:29:21.418Z,52.80
2023-02-23T05:32:23.638Z,50.60
2023-02-23T05:35:26.333Z,55.05
2023-02-23T05:38:28.503Z,53.63
2023-02-23T05:41:30.787Z,53.25
2023-02-23T05:44:32.960Z,53.13
2023-02-23T05:47:38.940Z,54.58
2023-02-23T05:50:41.195Z,55.55
2023-02-23T05:53:44.755Z,59.70
2023-02-23T05:56:47.319Z,56.20
2023-02-23T05:59:49.423Z,56.35
2023-02-23T06:02:53.197Z,59.40
2023-02-23T06:05:58.015Z,58.80
2023-02-23T06:09:00.445Z,61.20
2023-02-23T06:12:02.636Z,58.75
2023-02-23T06:15:05.307Z,58.17
2023-02-23T06:18:09.243Z,56.25
2023-02-23T06:21:11.560Z,60.40
2023-02-23T06:24:13.840Z,58.35
2023-02-23T06:27:16.142Z,60.85
2023-02-23T06:30:19.225Z,60.63
2023-02-23T06:33:22.285Z,61.72
2023-02-23T06:36:24.675Z,61.00
2023-02-23T06:39:26.882Z,60.90
2023-02-23T06:42:29.298Z,62.40
2023-02-23T06:45:32.584Z,60.78
2023-02-23T06:48:35.762Z,60.97
2023-02-23T06:51:38.263Z,60.22
2023-02-23T06:54:42.023Z,62.63
2023-02-23T06:57:44.468Z,61.13
2023-02-23T07:00:46.740Z,59.88
2023-02-23T07:03:49.043Z,61.60
2023-02-23T07:06:51.929Z,58.83
2023-02-23T07:09:54.105Z,59.95
2023-02-23T07:12:56.410Z,59.80
2023-02-23T07:15:58.838Z,57.85
2023-02-23T07:19:01.120Z,61.30
2023-02-23T07:22:03.690Z,63.28
2023-02-23T07:25:06.547Z,60.20
2023-02-23T07:28:08.809Z,61.13
2023-02-23T07:31:10.935Z,61.65
2023-02-23T07:34:13.065Z,59.97
2023-02-23T07:37:15.604Z,61.95
2023-02-23T07:40:19.493Z,60.47
2023-02-23T07:43:22.806Z,58.67
2023-02-23T07:46:25.457Z,57.53
2023-02-23T07:49:27.677Z,60.28
2023-02-23T07:52:29.924Z,55.45
2023-02-23T07:55:32.154Z,58.05
2023-02-23T07:58:34.826Z,57.45
2023-02-23T08:01:37.053Z,59.47
2023-02-23T08:04:40.792Z,59.33
2023-02-23T08:07:43.187Z,60.97
2023-02-23T08:10:45.360Z,55.65
2023-02-23T08:13:47.579Z,59.20
2023-02-23T08:16:51.632Z,57.33
2023-02-23T08:19:54.138Z,54.92
2023-02-23T08:22:57.067Z,58.40
2023-02-23T08:26:00.315Z,57.38
2023-02-23T08:29:02.546Z,57.83
2023-02-23T08:32:05.332Z,56.72
2023-02-23T08:35:07.918Z,56.60
2023-02-23T08:38:10.108Z,56.72
2023-02-23T08:41:12.549Z,59.83
2023-02-23T08:44:14.804Z,55.03
2023-02-23T08:47:23.570Z,56.15
2023-02-23T08:50:27.427Z,56.28
2023-02-23T08:53:30.884Z,55.83
2023-02-23T08:56:33.583Z,54.40
2023-02-23T08:59:37.080Z,55.40
2023-02-23T09:02:39.254Z,54.78
2023-02-23T09:05:41.465Z,53.67
2023-02-23T09:08:43.575Z,57.22
2023-02-23T09:11:45.896Z,56.72
2023-02-23T09:14:48.177Z,54.03
2023-02-23T09:17:50.440Z,53.92
2023-02-23T09:20:52.647Z,52.72
2023-02-23T09:23:56.255Z,56.15
2023-02-23T09:26:58.510Z,54.47
2023-02-23T09:30:00.837Z,57.72
2023-02-23T09:33:03.046Z,53.58
2023-02-23T09:36:22.878Z,55.22
2023-02-23T09:39:37.253Z,55.22
2023-02-23T09:43:02.881Z,52.38
2023-02-23T09:46:30.111Z,52.05
2023-02-23T09:49:38.126Z,51.25
2023-02-23T09:52:49.496Z,54.83
2023-02-23T09:55:54.429Z,54.20
2023-02-23T09:58:56.619Z,54.53
2023-02-23T10:02:17.064Z,54.75
2023-02-23T10:05:20.461Z,53.85
2023-02-23T10:08:42.809Z,53.92
2023-02-23T10:11:57.733Z,54.72
2023-02-23T10:15:04.304Z,54.00
2023-02-23T10:18:45.367Z,56.40
2023-02-23T10:22:01.636Z,55.00
2023-02-23T10:25:10.416Z,55.38
2023-02-23T10:28:18.877Z,57.33
2023-02-23T10:31:34.551Z,55.30
2023-02-23T10:34:37.340Z,55.08
2023-02-23T10:37:39.734Z,55.42
2023-02-23T10:40:43.500Z,56.25
2023-02-23T10:43:47.440Z,52.58
2023-02-23T10:46:55.859Z,55.28
2023-02-23T10:49:58.753Z,54.80
2023-02-23T10:53:11.656Z,55.05
2023-02-23T10:56:17.138Z,55.78
2023-02-23T10:59:21.443Z,52.78
2023-02-23T11:02:26.108Z,56.90
2023-02-23T11:05:46.306Z,56.40
2023-02-23T11:12:01.188Z,50.70
2023-02-23T11:15:32.002Z,55.15
2023-02-23T11:19:02.986Z,56.03
2023-02-23T11:22:06.606Z,53.30
2023-02-23T11:25:35.305Z,54.22
2023-02-23T11:28:42.685Z,54.50
2023-02-23T11:31:57.744Z,58.97
2023-02-23T11:35:15.548Z,59.20
2023-02-23T11:38:38.067Z,54.33
2023-02-23T11:41:40.398Z,55.20
2023-02-23T11:44:43.030Z,53.00
2023-02-23T11:47:50.140Z,54.25
2023-02-23T11:50:53.674Z,56.63
2023-02-23T11:53:56.367Z,55.50
2023-02-23T11:57:02.535Z,55.08
2023-02-23T12:00:14.238Z,54.47
2023-02-23T12:03:22.524Z,54.40
2023-02-23T12:06:40.422Z,53.08
2023-02-23T12:09:45.958Z,53.17
2023-02-23T12:12:56.137Z,53.72
2023-02-23T12:19:49.896Z,51.60
2023-02-23T12:22:57.903Z,51.42
2023-02-23T12:26:19.296Z,50.67
2023-02-23T12:29:33.460Z,52.53
2023-02-23T12:33:00.549Z,52.20
2023-02-23T12:36:26.444Z,50.95
2023-02-23T12:39:32.725Z,52.95
2023-02-23T12:42:52.922Z,48.70
2023-02-23T12:49:27.214Z,48.13
2023-02-23T12:52:34.770Z,50.33
2023-02-23T12:55:45.278Z,48.72
2023-02-23T12:59:26.042Z,48.97
2023-02-23T13:02:46.981Z,47.88
2023-02-23T13:05:56.802Z,48.90
2023-02-23T13:09:39.472Z,46.83
2023-02-23T13:13:11.890Z,47.22
2023-02-23T13:16:43.139Z,46.22
2023-02-23T13:19:58.975Z,46.08
2023-02-23T13:23:22.540Z,45.70
2023-02-23T13:26:42.687Z,45.70
2023-02-23T13:32:58.375Z,43.70
2023-02-23T13:36:05.491Z,45.60
2023-02-23T13:39:48.554Z,43.55
2023-02-23T13:43:31.239Z,44.95
2023-02-23T13:46:56.770Z,41.95
2023-02-23T13:50:05.324Z,42.05
2023-02-23T13:53:25.953Z,43.72
2023-02-23T13:56:31.687Z,43.08
2023-02-23T13:59:45.611Z,43.13
2023-02-23T14:02:48.538Z,42.97
2023-02-23T14:05:56.786Z,42.67
2023-02-23T14:09:32.451Z,42.03
2023-02-23T14:13:08.521Z,41.92
2023-02-23T14:16:19.922Z,41.42
2023-02-23T14:19:32.525Z,39.47
2023-02-23T14:22:35.559Z,40.47
2023-02-23T14:25:37.998Z,43.13
2023-02-23T14:28:42.948Z,45.05
2023-02-23T14:32:00.521Z,42.25
2023-02-23T14:35:02.999Z,41.42
2023-02-23T14:38:12.636Z,40.60
2023-02-23T14:41:15.132Z,40.53
2023-02-23T14:44:31.385Z,42.78
2023-02-23T14:47:43.326Z,41.50
2023-02-23T14:50:45.559Z,40.67
2023-02-23T14:53:47.834Z,40.78
2023-02-23T14:56:53.797Z,40.90
2023-02-23T15:00:01.683Z,42.08
2023-02-23T15:03:09.432Z,39.60
2023-02-23T15:06:12.332Z,40.33
2023-02-23T15:09:29.605Z,39.45
2023-02-23T15:12:37.979Z,38.47
2023-02-23T15:15:46.356Z,40.20
2023-02-23T15:18:48.996Z,41.90
2023-02-23T15:21:57.163Z,39.80
2023-02-23T15:25:02.248Z,42.00
2023-02-23T15:28:29.633Z,40.63
2023-02-23T15:31:32.279Z,39.72
2023-02-23T15:34:35.286Z,38.78
2023-02-23T15:41:08.397Z,38.33
2023-02-23T15:44:13.542Z,38.55
2023-02-23T15:47:22.214Z,38.55
2023-02-23T15:50:43.537Z,37.22
2023-02-23T15:53:45.927Z,37.05
2023-02-23T15:56:50.201Z,37.60
2023-02-23T15:59:58.656Z,38.75
2023-02-23T16:03:02.783Z,38.28
2023-02-23T16:06:08.980Z,36.38
2023-02-23T16:09:21.374Z,38.38
2023-02-23T16:12:32.052Z,36.47
2023-02-23T16:15:37.324Z,35.47
2023-02-23T16:18:42.492Z,38.13
2023-02-23T16:21:53.746Z,39.47
2023-02-23T16:25:03.148Z,38.80
2023-02-23T16:28:13.982Z,39.80
2023-02-23T16:31:25.959Z,36.60
2023-02-23T16:34:34.282Z,33.92
2023-02-23T16:37:51.306Z,33.35
2023-02-23T16:40:54.372Z,36.05
2023-02-23T16:43:59.891Z,33.35
2023-02-23T16:47:01.979Z,35.17
2023-02-23T16:50:21.534Z,38.20
2023-02-23T16:53:23.882Z,34.47
2023-02-23T16:56:26.431Z,37.03
2023-02-23T16:59:30.480Z,37.05
2023-02-23T17:02:32.760Z,35.72
2023-02-23T17:05:35.077Z,33.28
2023-02-23T17:08:41.279Z,31.20
2023-02-23T17:11:47.315Z,33.72
2023-02-23T17:14:49.867Z,30.35
2023-02-23T17:17:53.499Z,32.25
2023-02-23T17:20:57.263Z,28.63
2023-02-23T17:24:02.948Z,29.40
2023-02-23T17:27:05.291Z,30.02
2023-02-23T17:30:08.895Z,33.03
2023-02-23T17:33:12.139Z,34.38
2023-02-23T17:36:16.903Z,31.52
2023-02-23T17:39:19.244Z,33.20
2023-02-23T17:42:22.798Z,34.70
2023-02-23T17:45:25.260Z,35.65
2023-02-23T17:48:27.705Z,35.42
2023-02-23T17:51:29.913Z,34.72
2023-02-23T17:54:32.200Z,35.30
2023-02-23T17:57:34.566Z,36.13
2023-02-23T18:00:38.653Z,37.05
2023-02-23T18:03:41.036Z,34.40
2023-02-23T18:06:43.180Z,34.47
2023-02-23T18:09:45.728Z,33.33
2023-02-23T18:12:47.889Z,33.63
2023-02-23T18:16:06.267Z,33.30
2023-02-23T18:19:08.672Z,35.08
2023-02-23T18:22:11.602Z,33.90
2023-02-23T18:25:21.602Z,33.35
2023-02-23T18:28:23.872Z,32.22
2023-02-23T18:31:30.818Z,33.88
2023-02-23T18:34:33.580Z,32.90
2023-02-23T18:37:36.916Z,32.28
2023-02-23T18:40:39.292Z,32.95
2023-02-23T18:43:41.627Z,32.08
2023-02-23T18:46:46.242Z,35.92
2023-02-23T18:49:48.533Z,33.03
2023-02-23T18:52:51.124Z,36.40
2023-02-23T18:55:53.353Z,35.58
2023-02-23T18:59:00.441Z,34.85
2023-02-23T19:02:02.708Z,32.60
2023-02-23T19:05:05.251Z,34.63
2023-02-23T19:08:13.614Z,33.50
2023-02-23T19:11:15.738Z,34.22
2023-02-23T19:14:21.994Z,33.38
2023-02-23T19:17:29.016Z,36.50
2023-02-23T19:20:35.934Z,32.67
2023-02-23T19:23:38.774Z,35.67
2023-02-23T19:26:40.923Z,34.35
2023-02-23T19:29:43.751Z,35.55
2023-02-23T19:32:46.154Z,34.38
2023-02-23T19:35:50.351Z,35.85
2023-02-23T19:38:52.577Z,36.47
2023-02-23T19:41:54.796Z,36.92
2023-02-23T19:44:57.082Z,36.30
2023-02-23T19:47:59.198Z,36.10
2023-02-23T19:51:01.739Z,37.50
2023-02-23T19:54:04.363Z,37.95
2023-02-23T19:57:06.694Z,37.53
2023-02-23T20:00:12.754Z,36.25
2023-02-23T20:03:20.018Z,38.88
2023-02-23T20:06:25.006Z,38.40
2023-02-23T20:09:27.191Z,36.72
2023-02-23T20:12:35.123Z,38.00
2023-02-23T20:15:37.670Z,38.83
2023-02-23T20:18:41.403Z,38.08
2023-02-23T20:21:43.604Z,40.50
2023-02-23T20:24:45.911Z,39.20
2023-02-23T20:27:49.076Z,40.50
2023-02-23T20:30:51.344Z,38.45
2023-02-23T20:33:56.165Z,39.53
2023-02-23T20:36:58.358Z,40.60
2023-02-23T20:40:00.513Z,40.08
2023-02-23T20:43:02.565Z,40.72
2023-02-23T20:46:05.105Z,38.08
2023-02-23T20:49:11.815Z,38.90
2023-02-23T20:52:14.473Z,39.20
2023-02-23T20:55:18.902Z,41.47
2023-02-23T20:58:25.186Z,40.63
2023-02-23T21:01:27.501Z,39.85
2023-02-23T21:04:30.224Z,39.53
2023-02-23T21:07:32.496Z,41.40
2023-02-23T21:10:37.576Z,39.78
2023-02-23T21:13:39.779Z,40.35
2023-02-23T21:16:46.431Z,41.35
2023-02-23T21:19:48.655Z,40.70
2023-02-23T21:22:51.613Z,42.08
2023-02-23T21:25:54.149Z,41.58
2023-02-23T21:28:56.840Z,42.97
2023-02-23T21:31:59.161Z,43.42
2023-02-23T21:35:01.483Z,41.25
2023-02-23T21:38:04.263Z,41.78
2023-02-23T21:41:07.952Z,41.33
2023-02-23T21:44:11.308Z,41.05
2023-02-23T21:47:14.695Z,40.88
2023-02-23T21:50:19.703Z,41.03
2023-02-23T21:53:21.917Z,41.75
2023-02-23T21:56:24.492Z,42.33
2023-02-23T21:59:26.741Z,42.55
2023-02-23T22:02:30.717Z,41.03
2023-02-23T22:05:35.149Z,43.13
2023-02-23T22:08:38.746Z,42.03
2023-02-23T22:11:44.717Z,42.58
2023-02-23T22:14:46.989Z,42.85
2023-02-23T22:17:49.201Z,43.58
2023-02-23T22:20:59.624Z,41.67
2023-02-23T22:27:08.199Z,41.55
2023-02-23T22:30:14.208Z,41.88
2023-02-23T22:33:18.225Z,44.88
2023-02-23T22:36:20.443Z,42.63
2023-02-23T22:39:22.595Z,41.97
2023-02-23T22:42:24.934Z,42.17
2023-02-23T22:45:27.178Z,42.83
2023-02-23T22:48:29.790Z,43.85
2023-02-23T22:51:32.106Z,43.85
2023-02-23T22:54:35.529Z,42.05
2023-02-23T22:57:37.759Z,43.75
2023-02-23T23:00:39.916Z,44.13
2023-02-23T23:03:47.945Z,44.72
2023-02-23T23:06:50.512Z,45.50
2023-02-23T23:09:52.756Z,43.85
2023-02-23T23:12:57.182Z,43.85
2023-02-23T23:16:07.853Z,45.25
2023-02-23T23:19:15.997Z,43.60
2023-02-23T23:22:18.164Z,44.30
2023-02-23T23:25:23.287Z,41.97
2023-02-23T23:28:27.366Z,44.25
2023-02-23T23:31:31.906Z,43.85
2023-02-23T23:34:34.224Z,43.55
2023-02-23T23:37:39.780Z,43.42
2023-02-23T23:40:47.076Z,41.20
2023-02-23T23:43:49.280Z,41.38
2023-02-23T23:46:53.035Z,40.30
2023-02-23T23:49:55.959Z,41.83
2023-02-23T23:52:58.278Z,42.67
2023-02-23T23:56:10.934Z,44.45
2023-02-23T23:59:17.959Z,42.30
